createdAt,value
2023-03-21T00:02:30.591Z,8.41
2023-03-21T00:07:32.575Z,8.38
2023-03-21T00:12:36.126Z,8.35
2023-03-21T00:17:38.195Z,8.32
2023-03-21T00:22:40.300Z,8.33
2023-03-21T00:33:19.827Z,8.27
2023-03-21T00:38:27.955Z,8.26
2023-03-21T00:43:31.330Z,8.23
2023-03-21T00:48:33.825Z,8.21
2023-03-21T00:53:35.948Z,8.17
2023-03-21T00:58:39.379Z,8.16
2023-03-21T01:03:41.424Z,8.09
2023-03-21T01:08:52.314Z,7.98
2023-03-21T01:14:10.872Z,7.92
2023-03-21T01:19:27.512Z,7.75
2023-03-21T01:24:37.613Z,7.72
2023-03-21T01:29:41.210Z,7.65
2023-03-21T01:34:43.357Z,7.60
2023-03-21T01:39:46.623Z,7.53
2023-03-21T01:44:55.918Z,7.42
2023-03-21T01:50:01.256Z,7.32
2023-03-21T01:55:04.699Z,7.26
2023-03-21T02:00:10.263Z,7.24
2023-03-21T02:05:12.390Z,7.21
2023-03-21T02:10:17.055Z,7.16
2023-03-21T02:15:20.915Z,7.15
2023-03-21T02:20:47.066Z,7.19
2023-03-21T02:26:21.374Z,7.18
2023-03-21T02:31:41.599Z,7.16
2023-03-21T02:36:56.048Z,7.15
2023-03-21T02:42:07.937Z,7.10
2023-03-21T02:47:14.541Z,7.09
2023-03-21T02:52:37.295Z,7.07
2023-03-21T02:57:46.684Z,7.06
2023-03-21T03:02:54.630Z,7.04
2023-03-21T03:08:15.205Z,7.08
2023-03-21T03:13:31.266Z,7.04
2023-03-21T03:18:46.676Z,7.05
2023-03-21T03:23:53.698Z,7.06
2023-03-21T03:29:01.008Z,7.06
2023-03-21T03:34:06.715Z,7.05
2023-03-21T03:39:13.823Z,7.04
2023-03-21T03:44:16.552Z,7.05
2023-03-21T03:49:22.572Z,7.03
2023-03-21T03:54:30.333Z,7.03
2023-03-21T03:59:34.690Z,7.01
2023-03-21T04:04:36.957Z,6.99
2023-03-21T04:09:44.464Z,6.91
2023-03-21T04:14:47.616Z,7.00
2023-03-21T04:19:51.989Z,6.99
2023-03-21T04:24:57.176Z,7.05
2023-03-21T04:29:59.781Z,7.01
2023-03-21T04:35:01.934Z,7.02
2023-03-21T04:40:06.495Z,7.01
2023-03-21T04:45:12.406Z,6.96
2023-03-21T04:50:14.824Z,6.95
2023-03-21T04:55:21.574Z,6.94
2023-03-21T05:00:24.223Z,6.95
2023-03-21T05:05:25.909Z,6.90
2023-03-21T05:10:29.593Z,6.88
2023-03-21T05:15:31.376Z,6.89
2023-03-21T05:20:36.119Z,6.90
2023-03-21T05:25:40.351Z,6.91
2023-03-21T05:30:42.741Z,6.90
2023-03-21T05:35:44.875Z,6.92
2023-03-21T05:40:49.486Z,6.91
2023-03-21T05:45:59.176Z,6.94
2023-03-21T05:51:01.358Z,6.97
2023-03-21T05:56:06.068Z,7.01
2023-03-21T06:01:08.314Z,7.10
2023-03-21T06:06:10.831Z,7.15
2023-03-21T06:11:23.615Z,7.12
2023-03-21T06:16:25.924Z,7.16
2023-03-21T06:21:28.231Z,7.16
2023-03-21T06:26:31.654Z,7.21
2023-03-21T06:31:33.982Z,7.23
2023-03-21T06:36:35.816Z,7.28
2023-03-21T06:41:39.412Z,7.21
2023-03-21T06:46:41.803Z,7.34
2023-03-21T06:51:43.957Z,7.43
2023-03-21T06:56:47.738Z,7.49
2023-03-21T07:01:49.897Z,7.49
2023-03-21T07:06:52.092Z,7.70
2023-03-21T07:11:55.475Z,7.83
2023-03-21T07:16:58.151Z,7.93
2023-03-21T07:22:00.196Z,8.06
2023-03-21T07:27:03.317Z,8.17
2023-03-21T07:32:05.040Z,8.25
2023-03-21T07:37:07.521Z,8.24
2023-03-21T07:42:11.247Z,8.12
2023-03-21T07:47:13.481Z,8.18
2023-03-21T07:52:15.593Z,8.22
2023-03-21T07:57:19.322Z,8.35
2023-03-21T08:02:21.506Z,8.57
2023-03-21T08:07:23.675Z,8.66
2023-03-21T08:12:27.632Z,8.80
2023-03-21T08:17:29.781Z,8.83
2023-03-21T08:22:33.568Z,8.89
2023-03-21T08:27:39.298Z,8.83
2023-03-21T08:32:41.893Z,9.03
2023-03-21T08:37:44.133Z,9.01
2023-03-21T08:42:47.770Z,9.02
2023-03-21T08:47:50.133Z,9.02
2023-03-21T08:52:52.677Z,9.06
2023-03-21T08:57:56.419Z,9.22
2023-03-21T09:02:59.027Z,9.37
2023-03-21T09:08:01.137Z,9.58
2023-03-21T09:13:05.538Z,9.60
2023-03-21T09:18:07.725Z,9.86
2023-03-21T09:23:10.157Z,9.86
2023-03-21T09:28:13.563Z,9.77
2023-03-21T09:33:15.709Z,10.02
2023-03-21T09:38:17.781Z,10.32
2023-03-21T09:43:36.910Z,10.16
2023-03-21T09:48:56.657Z,10.14
2023-03-21T09:54:03.415Z,10.05
2023-03-21T09:59:11.594Z,10.17
2023-03-21T10:04:15.657Z,10.56
2023-03-21T10:09:19.853Z,10.80
2023-03-21T10:14:28.149Z,11.54
2023-03-21T10:19:30.091Z,11.33
2023-03-21T10:24:34.681Z,11.16
2023-03-21T10:29:42.878Z,11.25
2023-03-21T10:34:48.319Z,11.37
2023-03-21T10:39:52.413Z,11.55
2023-03-21T10:44:57.379Z,11.57
2023-03-21T10:50:08.623Z,11.57
2023-03-21T10:55:20.375Z,11.54
2023-03-21T11:00:27.921Z,11.49
2023-03-21T11:05:37.553Z,12.22
2023-03-21T11:10:53.698Z,12.36
2023-03-21T11:16:03.798Z,12.25
2023-03-21T11:21:08.555Z,12.23
2023-03-21T11:26:17.026Z,12.56
2023-03-21T11:31:21.468Z,12.60
2023-03-21T11:36:34.937Z,12.92
2023-03-21T11:41:40.622Z,12.51
2023-03-21T11:46:43.883Z,12.52
2023-03-21T11:51:52.170Z,12.71
2023-03-21T11:57:01.243Z,12.41
2023-03-21T12:02:27.302Z,12.47
2023-03-21T12:07:46.124Z,12.61
2023-03-21T12:12:55.816Z,12.51
2023-03-21T12:18:06.485Z,12.34
2023-03-21T12:23:23.141Z,12.35
2023-03-21T12:28:39.122Z,12.19
2023-03-21T12:34:06.895Z,12.28
2023-03-21T12:39:19.687Z,12.38
2023-03-21T12:44:24.093Z,12.19
2023-03-21T12:49:33.049Z,12.27
2023-03-21T12:54:40.233Z,12.41
2023-03-21T12:59:49.388Z,12.71
2023-03-21T13:04:59.504Z,12.70
2023-03-21T13:10:11.838Z,12.59
2023-03-21T13:15:38.643Z,12.60
2023-03-21T13:20:46.615Z,12.61
2023-03-21T13:25:50.874Z,12.48
2023-03-21T13:30:53.690Z,12.58
2023-03-21T13:36:00.980Z,12.90
2023-03-21T13:41:08.884Z,12.94
2023-03-21T13:46:13.662Z,12.90
2023-03-21T13:51:37.787Z,12.89
2023-03-21T13:56:50.622Z,13.27
2023-03-21T14:02:03.857Z,13.45
2023-03-21T14:07:11.889Z,13.47
2023-03-21T14:12:17.194Z,13.26
2023-03-21T14:17:23.558Z,13.18
2023-03-21T14:22:27.710Z,13.04
2023-03-21T14:27:32.573Z,12.97
2023-03-21T14:32:35.644Z,12.81
2023-03-21T14:37:41.120Z,12.70
2023-03-21T14:42:47.431Z,12.72
2023-03-21T14:47:57.451Z,12.71
2023-03-21T14:53:01.141Z,12.79
2023-03-21T14:58:05.625Z,12.85
2023-03-21T15:03:11.534Z,12.83
2023-03-21T15:08:17.878Z,12.88
2023-03-21T15:13:23.029Z,12.77
2023-03-21T15:18:28.193Z,12.72
2023-03-21T15:23:35.134Z,12.74
2023-03-21T15:28:37.570Z,12.63
2023-03-21T15:33:39.929Z,12.61
2023-03-21T15:38:43.568Z,12.50
2023-03-21T15:43:46.887Z,12.52
2023-03-21T15:48:48.960Z,12.61
2023-03-21T15:53:53.822Z,12.74
2023-03-21T15:58:55.959Z,12.79
2023-03-21T16:04:02.396Z,12.82
2023-03-21T16:09:12.436Z,12.66
2023-03-21T16:14:14.637Z,12.69
2023-03-21T16:19:17.514Z,12.60
2023-03-21T16:24:21.029Z,12.47
2023-03-21T16:29:23.110Z,12.33
2023-03-21T16:34:25.348Z,12.32
2023-03-21T16:39:28.861Z,12.27
2023-03-21T16:44:31.066Z,12.23
2023-03-21T16:49:33.227Z,12.27
2023-03-21T16:54:36.696Z,12.22
2023-03-21T16:59:38.873Z,12.16
2023-03-21T17:04:40.994Z,12.10
2023-03-21T17:09:44.664Z,11.96
2023-03-21T17:14:46.887Z,11.90
2023-03-21T17:19:48.997Z,11.84
2023-03-21T17:24:52.605Z,11.82
2023-03-21T17:29:54.823Z,11.76
2023-03-21T17:34:56.843Z,11.69
2023-03-21T17:40:00.228Z,11.56
2023-03-21T17:45:02.357Z,11.50
2023-03-21T17:50:05.101Z,11.48
2023-03-21T17:55:08.716Z,11.45
2023-03-21T18:00:15.593Z,11.43
2023-03-21T18:05:18.584Z,11.41
2023-03-21T18:10:24.859Z,11.42
2023-03-21T18:15:30.313Z,11.39
2023-03-21T18:20:51.278Z,11.38
2023-03-21T18:25:56.123Z,11.39
2023-03-21T18:31:10.296Z,11.37
2023-03-21T18:36:16.603Z,11.39
2023-03-21T18:41:20.212Z,11.34
2023-03-21T18:46:23.072Z,11.29
2023-03-21T18:51:25.130Z,11.27
2023-03-21T18:57:20.064Z,11.24
2023-03-21T19:01:51.007Z,11.25
2023-03-21T19:06:53.495Z,11.21
2023-03-21T19:11:57.290Z,11.20
2023-03-21T19:17:47.485Z,11.17
2023-03-21T19:22:25.999Z,11.31
2023-03-21T19:27:30.007Z,11.38
2023-03-21T19:32:32.348Z,11.38
2023-03-21T19:37:35.347Z,11.45
2023-03-21T19:42:39.026Z,11.37
2023-03-21T19:47:41.338Z,11.27
2023-03-21T19:52:43.386Z,11.21
2023-03-21T19:57:48.628Z,11.05
2023-03-21T20:02:50.597Z,11.03
2023-03-21T20:07:53.396Z,11.00
2023-03-21T20:12:57.255Z,10.98
2023-03-21T20:17:58.952Z,10.89
2023-03-21T20:23:09.014Z,10.89
2023-03-21T20:28:22.586Z,10.91
2023-03-21T20:33:27.387Z,10.93
2023-03-21T20:38:30.036Z,10.75
2023-03-21T20:48:55.247Z,10.72
2023-03-21T20:53:57.210Z,10.75
2023-03-21T20:59:15.268Z,10.65
2023-03-21T21:04:19.648Z,10.64
2023-03-21T21:09:21.367Z,10.71
2023-03-21T21:14:24.896Z,10.67
2023-03-21T21:19:27.254Z,10.66
2023-03-21T21:24:29.435Z,10.65
2023-03-21T21:29:32.643Z,10.71
2023-03-21T21:34:34.908Z,10.68
2023-03-21T21:39:37.074Z,10.65
2023-03-21T21:44:41.011Z,10.59
2023-03-21T21:49:43.336Z,10.56
2023-03-21T21:54:45.613Z,10.58
2023-03-21T21:59:49.141Z,10.50
2023-03-21T22:04:54.332Z,10.43
2023-03-21T22:09:56.409Z,10.33
2023-03-21T22:15:00.104Z,10.25
2023-03-21T22:20:06.507Z,10.28
2023-03-21T22:25:11.620Z,10.20
2023-03-21T22:30:16.158Z,10.17
2023-03-21T22:35:18.136Z,10.07
2023-03-21T22:40:20.375Z,10.11
2023-03-21T22:45:23.508Z,10.15
2023-03-21T22:50:25.591Z,10.11
2023-03-21T22:55:27.729Z,10.06
2023-03-21T23:00:31.563Z,10.05
2023-03-21T23:05:33.613Z,10.05
2023-03-21T23:10:37.674Z,10.00
2023-03-21T23:15:41.545Z,10.00
2023-03-21T23:20:43.320Z,9.98
2023-03-21T23:25:45.033Z,10.02
2023-03-21T23:30:48.211Z,10.01
2023-03-21T23:35:50.226Z,9.96
2023-03-21T23:40:51.911Z,9.80
2023-03-21T23:45:56.530Z,9.69
2023-03-21T23:50:58.881Z,9.64
2023-03-21T23:56:00.587Z,9.56
